Portada
METAR-TAF:

METAR-TAF

Aeropuertos :

Kristianstad, Suecia

latitud: 55-55N, longitud: 014-05E, altitud: 23 m

Observación

El informe se hizo hace 22 minutos, a las 14:50 UTC
Viento 8 kt del sur-suroeste, variando entre sur y oeste-suroeste
Temperatura 29°C
Humedad 31%
Presión 1023 hPa
Visibilidad 10 km o más

METAR: ESMK 061450Z AUTO 21008KT 170V240 9999 NCD 29/10 Q1023

Hora: 17:12 (15:12 UTC)

Pronóstico

El informe se hizo hace 4 horas y 10 minutos, a las 11:02 UTC
Pronóstico válido del 06 a las 12 UTC al 06 a las 15 UTC
Viento 8 kt del sur-sureste
Visibilidad 10 km o más
sin nubes por debajo de 1500 m y sin presencia de cumulonimbus.

TAF: ESMK 061102Z 0612/0615 16008KT CAVOK

Observaciones y pronósticos meteorológicos de más de 4000 aeropuertos (mensajes METAR y TAF).

Los puntos amarillos y rojos representan las estaciones disponibles.

Ponga el ratón en el punto deseado para ver el nombre de la estación.

Haga clic para ver las observaciones y los pronósticos meteorológicos.

Para cambiar el mapa : haga clic en los botones verdes con una cruz de color negro para hacer un zoom, en el botón verde con un guión para alejar o en las flechas verdes para mapas adyacentes.


METAR-TAF: